createdAt,value
2019-01-08T00:00:18.699Z,21.41
2019-01-08T00:01:18.688Z,21.38
2019-01-08T00:02:18.685Z,21.41
2019-01-08T00:03:18.680Z,21.41
2019-01-08T00:04:18.648Z,21.40
2019-01-08T00:05:18.646Z,21.38
2019-01-08T00:06:18.654Z,21.41
2019-01-08T00:07:18.630Z,21.41
2019-01-08T00:08:18.618Z,21.46
2019-01-08T00:09:18.628Z,21.48
2019-01-08T00:10:18.586Z,21.59
2019-01-08T00:11:18.582Z,21.64
2019-01-08T00:12:18.591Z,21.61
2019-01-08T00:13:18.562Z,21.66
2019-01-08T00:14:18.553Z,21.53
2019-01-08T00:15:18.595Z,21.46
2019-01-08T00:16:18.530Z,21.41
2019-01-08T00:17:18.517Z,21.43
2019-01-08T00:18:18.520Z,21.34
2019-01-08T00:19:18.498Z,21.41
2019-01-08T00:20:18.491Z,21.41
2019-01-08T00:21:18.511Z,21.30
2019-01-08T00:22:18.468Z,21.33
2019-01-08T00:23:18.453Z,21.28
2019-01-08T00:24:18.448Z,21.21
2019-01-08T00:25:18.445Z,21.31
2019-01-08T00:26:18.421Z,21.38
2019-01-08T00:27:18.438Z,21.38
2019-01-08T00:28:18.401Z,21.34
2019-01-08T00:29:18.390Z,21.41
2019-01-08T00:30:18.392Z,21.41
2019-01-08T00:31:18.383Z,21.49
2019-01-08T00:32:18.360Z,21.43
2019-01-08T00:33:18.352Z,21.41
2019-01-08T00:34:18.338Z,21.46
2019-01-08T00:35:18.331Z,21.53
2019-01-08T00:36:18.315Z,21.41
2019-01-08T00:37:18.335Z,21.46
2019-01-08T00:38:18.317Z,21.38
2019-01-08T00:39:18.288Z,21.41
2019-01-08T00:40:18.275Z,21.33
2019-01-08T00:41:18.267Z,21.30
2019-01-08T00:42:18.260Z,21.22
2019-01-08T00:43:18.254Z,21.27
2019-01-08T00:44:18.227Z,21.21
2019-01-08T00:45:18.224Z,21.25
2019-01-08T00:46:18.212Z,21.15
2019-01-08T00:47:18.211Z,21.21
2019-01-08T00:48:18.191Z,21.27
2019-01-08T00:49:18.179Z,21.30
2019-01-08T00:50:18.178Z,21.18
2019-01-08T00:51:18.196Z,21.22
2019-01-08T00:52:18.143Z,21.30
2019-01-08T00:53:18.217Z,21.13
2019-01-08T00:54:18.133Z,21.18
2019-01-08T00:55:18.124Z,21.28
2019-01-08T00:56:18.109Z,21.22
2019-01-08T00:57:18.096Z,21.28
2019-01-08T00:58:18.113Z,21.28
2019-01-08T00:59:18.082Z,21.30
2019-01-08T01:00:18.078Z,21.33
2019-01-08T01:01:18.057Z,21.33
2019-01-08T01:02:18.092Z,21.30
2019-01-08T01:03:18.033Z,21.34
2019-01-08T01:04:18.108Z,21.36
2019-01-08T01:05:18.007Z,21.27
2019-01-08T01:06:18.007Z,21.25
2019-01-08T01:07:18.011Z,21.28
2019-01-08T01:08:18.009Z,21.36
2019-01-08T01:09:17.977Z,21.30
2019-01-08T01:10:17.966Z,21.33
2019-01-08T01:11:17.968Z,21.37
2019-01-08T01:12:17.945Z,21.40
2019-01-08T01:13:17.949Z,21.41
2019-01-08T01:14:17.923Z,21.41
2019-01-08T01:15:17.920Z,21.46
2019-01-08T01:16:17.927Z,21.51
2019-01-08T01:17:17.887Z,21.49
2019-01-08T01:18:17.886Z,21.56
2019-01-08T01:19:17.880Z,21.55
2019-01-08T01:20:17.863Z,21.55
2019-01-08T01:21:17.849Z,21.46
2019-01-08T01:22:17.838Z,21.46
2019-01-08T01:23:17.823Z,21.46
2019-01-08T01:24:17.815Z,21.45
2019-01-08T01:25:17.820Z,21.48
2019-01-08T01:26:17.796Z,21.43
2019-01-08T01:27:17.793Z,21.37
2019-01-08T01:28:17.782Z,21.41
2019-01-08T01:29:17.764Z,21.33
2019-01-08T01:30:17.755Z,21.27
2019-01-08T01:31:17.775Z,21.30
2019-01-08T01:32:17.728Z,21.22
2019-01-08T01:33:17.724Z,21.22
2019-01-08T01:34:17.736Z,21.25
2019-01-08T01:35:17.716Z,21.19
2019-01-08T01:36:17.697Z,21.21
2019-01-08T01:37:17.680Z,21.27
2019-01-08T01:38:17.671Z,21.21
2019-01-08T01:39:17.741Z,21.25
2019-01-08T01:40:17.648Z,21.25
2019-01-08T01:41:17.643Z,21.34
2019-01-08T01:42:17.649Z,21.31
2019-01-08T01:43:17.623Z,21.37
2019-01-08T01:44:17.626Z,21.38
2019-01-08T01:45:17.591Z,21.38
2019-01-08T01:46:17.593Z,21.38
2019-01-08T01:47:17.587Z,21.45
2019-01-08T01:48:17.609Z,21.38
2019-01-08T01:49:17.555Z,21.37
2019-01-08T01:50:17.544Z,21.30
2019-01-08T01:51:17.531Z,21.33
2019-01-08T01:52:17.524Z,21.31
2019-01-08T01:53:17.525Z,21.36
2019-01-08T01:54:17.520Z,21.22
2019-01-08T01:55:17.489Z,21.19
2019-01-08T01:56:17.485Z,21.21
2019-01-08T01:57:17.479Z,21.30
2019-01-08T01:58:17.472Z,21.28
2019-01-08T01:59:17.448Z,21.16
2019-01-08T02:00:17.439Z,21.27
2019-01-08T02:01:17.444Z,21.22
2019-01-08T02:02:17.418Z,21.19
2019-01-08T02:03:17.406Z,21.28
2019-01-08T02:04:17.393Z,21.28
2019-01-08T02:05:17.382Z,21.21
2019-01-08T02:06:17.371Z,21.22
2019-01-08T02:07:17.357Z,21.23
2019-01-08T02:08:17.366Z,21.23
2019-01-08T02:09:17.357Z,21.27
2019-01-08T02:10:17.338Z,21.28
2019-01-08T02:11:17.343Z,21.27
2019-01-08T02:12:17.349Z,21.27
2019-01-08T02:13:17.305Z,21.25
2019-01-08T02:14:17.286Z,21.31
2019-01-08T02:15:17.284Z,21.34
2019-01-08T02:16:17.266Z,21.27
2019-01-08T02:17:17.333Z,21.31
2019-01-08T02:18:17.257Z,21.36
2019-01-08T02:19:17.242Z,21.38
2019-01-08T02:20:17.228Z,21.40
2019-01-08T02:21:17.223Z,21.51
2019-01-08T02:22:17.214Z,21.49
2019-01-08T02:23:17.209Z,21.40
2019-01-08T02:24:17.182Z,21.51
2019-01-08T02:25:17.173Z,21.51
2019-01-08T02:26:17.174Z,21.45
2019-01-08T02:27:17.162Z,21.45
2019-01-08T02:28:17.140Z,21.55
2019-01-08T02:29:17.133Z,21.49
2019-01-08T02:30:17.120Z,21.56
2019-01-08T02:31:17.106Z,21.58
2019-01-08T02:32:17.102Z,21.67
2019-01-08T02:33:17.093Z,21.58
2019-01-08T02:34:17.104Z,21.59
2019-01-08T02:35:17.066Z,21.64
2019-01-08T02:36:17.057Z,21.52
2019-01-08T02:37:17.045Z,21.46
2019-01-08T02:38:17.047Z,21.41
2019-01-08T02:39:17.030Z,21.41
2019-01-08T02:40:17.049Z,21.40
2019-01-08T02:41:17.090Z,21.30
2019-01-08T02:42:17.001Z,21.27
2019-01-08T02:43:17.003Z,21.31
2019-01-08T02:44:17.085Z,21.21
2019-01-08T02:45:16.966Z,21.21
2019-01-08T02:46:17.021Z,21.15
2019-01-08T02:47:16.963Z,21.33
2019-01-08T02:48:16.937Z,21.19
2019-01-08T02:49:16.923Z,21.28
2019-01-08T02:50:16.920Z,21.31
2019-01-08T02:51:16.905Z,21.25
2019-01-08T02:52:16.914Z,21.33
2019-01-08T02:53:16.879Z,21.37
2019-01-08T02:54:16.881Z,21.34
2019-01-08T02:55:16.879Z,21.41
2019-01-08T02:56:16.849Z,21.36
2019-01-08T02:57:16.841Z,21.40
2019-01-08T02:58:16.832Z,21.48
2019-01-08T02:59:24.891Z,21.38
2019-01-08T03:00:17.815Z,21.36
2019-01-08T03:01:16.803Z,21.30
2019-01-08T03:02:16.802Z,21.38
2019-01-08T03:03:16.786Z,21.21
2019-01-08T03:04:16.788Z,21.28
2019-01-08T03:05:16.757Z,21.23
2019-01-08T03:06:16.746Z,21.27
2019-01-08T03:07:16.749Z,21.25
2019-01-08T03:08:16.725Z,21.28
2019-01-08T03:09:16.715Z,21.28
2019-01-08T03:10:16.718Z,21.23
2019-01-08T03:11:16.714Z,21.30
2019-01-08T03:12:16.687Z,21.23
2019-01-08T03:13:16.680Z,21.30
2019-01-08T03:14:16.657Z,21.27
2019-01-08T03:15:16.691Z,21.19
2019-01-08T03:16:16.650Z,21.30
2019-01-08T03:17:16.631Z,21.34
2019-01-08T03:18:16.670Z,21.27
2019-01-08T03:19:16.643Z,21.36
2019-01-08T03:20:16.629Z,21.25
2019-01-08T03:21:16.622Z,21.23
2019-01-08T03:22:16.593Z,21.27
2019-01-08T03:23:16.567Z,21.27
2019-01-08T03:24:16.551Z,21.25
2019-01-08T03:25:16.548Z,21.30
2019-01-08T03:26:16.540Z,21.33
2019-01-08T03:27:16.528Z,21.28
2019-01-08T03:28:16.520Z,21.40
2019-01-08T03:29:16.507Z,21.28
2019-01-08T03:30:16.496Z,21.45
2019-01-08T03:31:16.488Z,21.40
2019-01-08T03:32:16.479Z,21.46
2019-01-08T03:33:16.462Z,21.49
2019-01-08T03:34:16.458Z,21.51
2019-01-08T03:35:16.438Z,21.43
2019-01-08T03:36:16.443Z,21.46
2019-01-08T03:37:16.422Z,21.45
2019-01-08T03:38:16.419Z,21.43
2019-01-08T03:39:16.397Z,21.53
2019-01-08T03:40:16.400Z,21.46
2019-01-08T03:41:16.375Z,21.49
2019-01-08T03:42:16.382Z,21.37
2019-01-08T03:43:16.357Z,21.40
2019-01-08T03:44:16.345Z,21.45
2019-01-08T03:45:16.349Z,21.25
2019-01-08T03:46:16.325Z,21.21
2019-01-08T03:47:16.328Z,21.21
2019-01-08T03:48:16.312Z,21.33
2019-01-08T03:49:16.302Z,21.21
2019-01-08T03:50:16.300Z,21.18
2019-01-08T03:51:16.286Z,21.21
2019-01-08T03:52:16.266Z,21.16
2019-01-08T03:53:16.254Z,21.12
2019-01-08T03:54:16.257Z,21.21
2019-01-08T03:55:16.249Z,21.21
2019-01-08T03:56:16.224Z,21.19
2019-01-08T03:57:16.229Z,21.18
2019-01-08T03:58:16.207Z,21.28
2019-01-08T03:59:16.186Z,21.33
2019-01-08T04:00:16.180Z,21.33
2019-01-08T04:01:16.176Z,21.27
2019-01-08T04:02:16.160Z,21.30
2019-01-08T04:03:16.151Z,21.25
2019-01-08T04:04:16.137Z,21.22
2019-01-08T04:05:16.130Z,21.15
2019-01-08T04:06:16.118Z,21.22
2019-01-08T04:07:16.108Z,21.04
2019-01-08T04:08:16.103Z,21.11
2019-01-08T04:09:16.087Z,21.08
2019-01-08T04:10:16.081Z,21.09
2019-01-08T04:11:16.066Z,21.00
2019-01-08T04:12:16.055Z,20.97
2019-01-08T04:13:16.054Z,20.98
2019-01-08T04:14:16.066Z,20.97
2019-01-08T04:15:16.026Z,21.01
2019-01-08T04:16:16.018Z,21.06
2019-01-08T04:17:16.013Z,21.03
2019-01-08T04:18:15.995Z,20.98
2019-01-08T04:19:15.990Z,21.04
2019-01-08T04:20:15.978Z,21.15
2019-01-08T04:21:15.957Z,20.98
2019-01-08T04:22:15.955Z,21.04
2019-01-08T04:23:15.943Z,21.06
2019-01-08T04:24:15.933Z,21.04
2019-01-08T04:25:15.927Z,21.09
2019-01-08T04:26:15.905Z,21.09
2019-01-08T04:27:16.019Z,21.06
2019-01-08T04:28:15.949Z,21.15
2019-01-08T04:29:15.875Z,21.03
2019-01-08T04:30:15.878Z,21.09
2019-01-08T04:31:15.868Z,21.09
2019-01-08T04:32:15.845Z,21.01
2019-01-08T04:33:15.835Z,20.98
2019-01-08T04:34:15.830Z,21.06
2019-01-08T04:35:15.822Z,21.00
2019-01-08T04:36:15.815Z,21.13
2019-01-08T04:37:15.809Z,21.13
2019-01-08T04:38:15.784Z,21.15
2019-01-08T04:39:15.776Z,21.08
2019-01-08T04:40:15.790Z,21.08
2019-01-08T04:41:15.753Z,21.11
2019-01-08T04:42:15.757Z,21.11
2019-01-08T04:43:15.734Z,21.15
2019-01-08T04:44:15.716Z,21.23
2019-01-08T04:45:15.708Z,21.18
2019-01-08T04:46:15.715Z,21.18
2019-01-08T04:47:15.696Z,21.18
2019-01-08T04:48:15.718Z,21.19
2019-01-08T04:49:15.687Z,21.19
2019-01-08T04:50:15.664Z,21.19
2019-01-08T04:51:15.662Z,21.12
2019-01-08T04:52:15.677Z,21.15
2019-01-08T04:53:15.631Z,21.08
2019-01-08T04:54:15.623Z,21.13
2019-01-08T04:55:15.618Z,21.03
2019-01-08T04:56:15.596Z,21.00
2019-01-08T04:57:15.588Z,20.90
2019-01-08T04:58:15.579Z,20.96
2019-01-08T04:59:15.558Z,21.01
2019-01-08T05:00:15.558Z,20.97
2019-01-08T05:01:15.543Z,20.94
2019-01-08T05:02:15.530Z,20.85
2019-01-08T05:03:15.518Z,20.91
2019-01-08T05:04:15.517Z,20.97
2019-01-08T05:05:15.502Z,21.00
2019-01-08T05:06:15.486Z,20.96
2019-01-08T05:07:15.489Z,21.03
2019-01-08T05:08:15.463Z,21.11
2019-01-08T05:09:15.478Z,21.18
2019-01-08T05:10:15.452Z,21.41
2019-01-08T05:11:15.472Z,21.48
2019-01-08T05:12:15.428Z,21.55
2019-01-08T05:13:15.427Z,21.82
2019-01-08T05:14:15.405Z,22.02
2019-01-08T05:15:15.401Z,22.04
2019-01-08T05:16:15.387Z,22.24
2019-01-08T05:17:15.413Z,22.31
2019-01-08T05:18:15.383Z,22.38
2019-01-08T05:19:15.363Z,22.54
2019-01-08T05:20:15.339Z,22.61
2019-01-08T05:21:15.332Z,22.75
2019-01-08T05:22:15.323Z,22.86
2019-01-08T05:23:15.321Z,22.88
2019-01-08T05:24:15.310Z,23.01
2019-01-08T05:25:15.293Z,23.04
2019-01-08T05:26:15.277Z,23.12
2019-01-08T05:27:15.284Z,23.09
2019-01-08T05:28:15.259Z,23.29
2019-01-08T05:29:15.258Z,23.15
2019-01-08T05:30:15.249Z,23.35
2019-01-08T05:31:15.238Z,23.29
2019-01-08T05:32:15.215Z,23.42
2019-01-08T05:33:15.212Z,23.56
2019-01-08T05:34:15.195Z,23.56
2019-01-08T05:35:15.180Z,23.59
2019-01-08T05:36:15.185Z,23.74
2019-01-08T05:37:15.164Z,23.72
2019-01-08T05:38:15.157Z,23.75
2019-01-08T05:39:15.146Z,23.81
2019-01-08T05:40:15.131Z,23.81
2019-01-08T05:41:15.745Z,23.84
2019-01-08T05:42:15.124Z,24.00
2019-01-08T05:43:15.150Z,23.97
2019-01-08T05:44:15.096Z,24.03
2019-01-08T05:45:15.155Z,24.02
2019-01-08T05:46:15.079Z,24.02
2019-01-08T05:47:16.468Z,24.11
2019-01-08T05:48:15.052Z,24.07
2019-01-08T05:49:15.039Z,24.14
2019-01-08T05:50:15.030Z,24.11
2019-01-08T05:51:15.018Z,24.17
2019-01-08T05:52:15.006Z,24.15
2019-01-08T05:53:15.003Z,24.24
2019-01-08T05:54:14.988Z,24.24
2019-01-08T05:55:14.976Z,24.21
2019-01-08T05:56:14.990Z,24.29
2019-01-08T05:57:14.952Z,24.32
2019-01-08T05:58:14.947Z,24.18
2019-01-08T05:59:14.943Z,24.29
2019-01-08T06:00:16.554Z,24.29
2019-01-08T06:01:14.934Z,24.32
2019-01-08T06:02:14.923Z,24.30
2019-01-08T06:03:14.893Z,24.29
2019-01-08T06:04:14.892Z,24.29
2019-01-08T06:05:14.882Z,24.22
2019-01-08T06:06:14.857Z,24.36
2019-01-08T06:07:14.847Z,24.34
2019-01-08T06:08:14.852Z,24.36
2019-01-08T06:09:14.845Z,24.39
2019-01-08T06:10:14.826Z,24.34
2019-01-08T06:11:14.818Z,24.39
2019-01-08T06:12:14.795Z,24.21
2019-01-08T06:13:14.784Z,24.34
2019-01-08T06:14:14.775Z,24.30
2019-01-08T06:15:14.791Z,24.21
2019-01-08T06:16:14.757Z,24.19
2019-01-08T06:17:14.763Z,24.22
2019-01-08T06:18:14.774Z,24.33
2019-01-08T06:19:14.722Z,24.29
2019-01-08T06:20:14.709Z,24.22
2019-01-08T06:21:14.707Z,24.24
2019-01-08T06:22:14.697Z,24.21
2019-01-08T06:23:14.687Z,24.27
2019-01-08T06:24:14.677Z,24.19
2019-01-08T06:25:14.675Z,24.24
2019-01-08T06:26:14.648Z,24.19
2019-01-08T06:27:14.649Z,24.19
2019-01-08T06:28:14.635Z,24.15
2019-01-08T06:29:14.620Z,24.19
2019-01-08T06:30:14.606Z,24.15
2019-01-08T06:31:14.595Z,24.15
2019-01-08T06:32:14.596Z,24.09
2019-01-08T06:33:14.586Z,24.08
2019-01-08T06:34:14.572Z,24.09
2019-01-08T06:35:14.560Z,24.03
2019-01-08T06:36:14.553Z,23.99
2019-01-08T06:37:14.541Z,24.02
2019-01-08T06:38:15.389Z,24.04
2019-01-08T06:39:14.514Z,24.00
2019-01-08T06:40:14.499Z,24.11
2019-01-08T06:41:14.487Z,24.07
2019-01-08T06:42:14.480Z,24.03
2019-01-08T06:43:14.477Z,24.03
2019-01-08T06:44:14.471Z,24.02
2019-01-08T06:45:14.455Z,24.00
2019-01-08T06:46:14.436Z,23.99
2019-01-08T06:47:14.426Z,24.11
2019-01-08T06:48:14.418Z,24.02
2019-01-08T06:49:14.408Z,24.00
2019-01-08T06:50:14.403Z,24.07
2019-01-08T06:51:14.390Z,24.02
2019-01-08T06:52:14.376Z,24.02
2019-01-08T06:53:14.363Z,24.02
2019-01-08T06:54:14.358Z,24.03
2019-01-08T06:55:14.349Z,23.94
2019-01-08T06:56:14.688Z,24.03
2019-01-08T06:57:14.330Z,24.00
2019-01-08T06:58:14.313Z,23.99
2019-01-08T06:59:14.302Z,24.04
2019-01-08T07:00:14.299Z,24.04
2019-01-08T07:01:14.277Z,24.02
2019-01-08T07:02:14.270Z,24.07
2019-01-08T07:03:14.274Z,24.02
2019-01-08T07:04:14.251Z,24.09
2019-01-08T07:05:14.245Z,24.07
2019-01-08T07:06:14.231Z,23.99
2019-01-08T07:07:14.215Z,23.99
2019-01-08T07:08:14.210Z,24.02
2019-01-08T07:09:14.193Z,23.99
2019-01-08T07:10:14.206Z,24.02
2019-01-08T07:11:14.176Z,24.09
2019-01-08T07:12:14.179Z,24.04
2019-01-08T07:13:14.171Z,24.00
2019-01-08T07:14:14.159Z,24.04
2019-01-08T07:15:14.132Z,24.04
2019-01-08T07:16:14.135Z,24.00
2019-01-08T07:17:14.124Z,24.04
2019-01-08T07:18:14.097Z,24.04
2019-01-08T07:19:14.099Z,23.93
2019-01-08T07:20:14.094Z,23.97
2019-01-08T07:21:14.070Z,23.97
2019-01-08T07:22:14.060Z,24.00
2019-01-08T07:23:14.051Z,24.00
2019-01-08T07:24:14.038Z,24.04
2019-01-08T07:25:14.036Z,24.00
2019-01-08T07:26:14.037Z,24.12
2019-01-08T07:27:16.513Z,24.03
2019-01-08T07:28:14.001Z,24.04
2019-01-08T07:29:13.995Z,24.11
2019-01-08T07:30:13.972Z,24.03
2019-01-08T07:31:13.967Z,24.03
2019-01-08T07:32:13.992Z,24.03
2019-01-08T07:33:13.942Z,24.02
2019-01-08T07:34:13.933Z,24.04
2019-01-08T07:35:13.928Z,24.04
2019-01-08T07:36:13.917Z,24.02
2019-01-08T07:37:13.915Z,24.02
2019-01-08T07:38:13.899Z,24.09
2019-01-08T07:39:13.916Z,24.14
2019-01-08T07:40:13.873Z,24.00
2019-01-08T07:41:13.861Z,24.09
2019-01-08T07:42:13.852Z,24.02
2019-01-08T07:43:13.854Z,23.75
2019-01-08T07:44:13.846Z,23.72
2019-01-08T07:45:13.826Z,23.63
2019-01-08T07:46:13.807Z,23.64
2019-01-08T07:47:13.799Z,23.56
2019-01-08T07:48:13.789Z,23.50
2019-01-08T07:49:13.783Z,23.38
2019-01-08T07:50:13.767Z,23.29
2019-01-08T07:51:13.763Z,23.34
2019-01-08T07:52:13.786Z,23.21
2019-01-08T07:53:13.736Z,23.06
2019-01-08T07:54:13.731Z,22.97
2019-01-08T07:55:13.719Z,22.85
2019-01-08T07:56:13.705Z,22.82
2019-01-08T07:57:13.698Z,22.69
2019-01-08T07:58:13.682Z,22.67
2019-01-08T07:59:13.669Z,22.63
2019-01-08T08:00:13.666Z,22.70
2019-01-08T08:01:13.656Z,22.69
2019-01-08T08:02:13.645Z,22.73
2019-01-08T08:03:13.646Z,22.82
2019-01-08T08:04:13.631Z,22.84
2019-01-08T08:05:13.613Z,22.75
2019-01-08T08:06:13.603Z,22.88
2019-01-08T08:07:13.594Z,22.84
2019-01-08T08:08:13.585Z,22.81
2019-01-08T08:09:13.566Z,22.85
2019-01-08T08:10:13.565Z,22.70
2019-01-08T08:11:13.542Z,22.69
2019-01-08T08:12:13.544Z,22.63
2019-01-08T08:13:13.533Z,22.55
2019-01-08T08:14:13.519Z,22.55
2019-01-08T08:15:13.510Z,22.45
2019-01-08T08:16:13.500Z,22.48
2019-01-08T08:17:13.486Z,22.54
2019-01-08T08:18:13.476Z,22.45
2019-01-08T08:19:13.458Z,22.45
2019-01-08T08:20:13.520Z,22.54
2019-01-08T08:21:13.454Z,22.52
2019-01-08T08:22:13.451Z,22.42
2019-01-08T08:23:14.389Z,22.44
2019-01-08T08:24:13.413Z,22.45
2019-01-08T08:25:13.438Z,22.41
2019-01-08T08:26:13.399Z,22.45
2019-01-08T08:27:13.385Z,22.48
2019-01-08T08:28:13.373Z,22.45
2019-01-08T08:29:13.366Z,22.39
2019-01-08T08:30:13.357Z,22.30
2019-01-08T08:31:13.359Z,22.29
2019-01-08T08:32:13.325Z,22.23
2019-01-08T08:33:13.326Z,22.29
2019-01-08T08:34:13.298Z,22.29
2019-01-08T08:35:13.298Z,22.27
2019-01-08T08:36:13.292Z,22.23
2019-01-08T08:37:13.270Z,22.27
2019-01-08T08:38:13.271Z,22.34
2019-01-08T08:39:13.257Z,22.31
2019-01-08T08:40:13.246Z,22.33
2019-01-08T08:41:13.243Z,22.51
2019-01-08T08:42:13.248Z,22.54
2019-01-08T08:43:13.210Z,22.54
2019-01-08T08:44:13.196Z,22.57
2019-01-08T08:45:13.865Z,22.61
2019-01-08T08:46:13.181Z,22.66
2019-01-08T08:47:13.163Z,22.64
2019-01-08T08:48:13.166Z,22.69
2019-01-08T08:49:13.147Z,22.64
2019-01-08T08:50:13.165Z,22.66
2019-01-08T08:51:13.159Z,22.75
2019-01-08T08:52:13.111Z,22.73
2019-01-08T08:53:13.118Z,22.71
2019-01-08T08:54:13.106Z,22.79
2019-01-08T08:55:13.081Z,22.85
2019-01-08T08:56:13.069Z,22.88
2019-01-08T08:57:13.061Z,22.91
2019-01-08T08:58:13.055Z,22.85
2019-01-08T08:59:13.044Z,22.85
2019-01-08T09:00:13.073Z,22.92
2019-01-08T09:01:13.040Z,23.07
2019-01-08T09:02:13.125Z,23.10
2019-01-08T09:03:12.997Z,23.22
2019-01-08T09:04:12.996Z,23.24
2019-01-08T09:05:12.971Z,23.32
2019-01-08T09:06:12.971Z,23.32
2019-01-08T09:07:12.954Z,23.37
2019-01-08T09:08:12.948Z,23.40
2019-01-08T09:09:12.936Z,23.25
2019-01-08T09:10:12.924Z,23.10
2019-01-08T09:11:12.927Z,23.00
2019-01-08T09:12:12.902Z,23.09
2019-01-08T09:13:12.892Z,23.09
2019-01-08T09:14:12.896Z,23.35
2019-01-08T09:15:12.882Z,23.40
2019-01-08T09:16:12.857Z,23.50
2019-01-08T09:17:12.908Z,23.47
2019-01-08T09:18:12.849Z,23.55
2019-01-08T09:19:12.834Z,23.57
2019-01-08T09:20:12.813Z,23.50
2019-01-08T09:21:12.819Z,23.57
2019-01-08T09:22:12.855Z,23.50
2019-01-08T09:23:12.794Z,23.40
2019-01-08T09:24:12.785Z,23.28
2019-01-08T09:25:12.771Z,23.28
2019-01-08T09:26:12.759Z,23.03
2019-01-08T09:27:12.747Z,22.89
2019-01-08T09:28:12.744Z,22.84
2019-01-08T09:29:12.800Z,22.75
2019-01-08T09:30:12.893Z,22.85
2019-01-08T09:31:15.553Z,22.88
2019-01-08T09:32:12.707Z,22.82
2019-01-08T09:33:12.688Z,22.73
2019-01-08T09:34:12.682Z,22.86
2019-01-08T09:35:12.667Z,23.01
2019-01-08T09:36:12.658Z,23.00
2019-01-08T09:37:12.664Z,22.96
2019-01-08T09:38:12.635Z,22.92
2019-01-08T09:39:12.650Z,22.85
2019-01-08T09:40:12.613Z,22.82
2019-01-08T09:41:12.629Z,22.88
2019-01-08T09:42:12.596Z,22.70
2019-01-08T09:43:12.613Z,22.64
2019-01-08T09:44:12.623Z,22.66
2019-01-08T09:45:12.600Z,22.63
2019-01-08T09:46:12.629Z,22.61
2019-01-08T09:47:12.611Z,22.60
2019-01-08T09:48:12.617Z,22.57
2019-01-08T09:49:12.648Z,22.63
2019-01-08T09:50:12.534Z,22.63
2019-01-08T09:51:12.511Z,22.66
2019-01-08T09:52:12.531Z,22.78
2019-01-08T09:53:12.487Z,22.73
2019-01-08T09:54:12.483Z,22.81
2019-01-08T09:55:12.477Z,22.88
2019-01-08T09:56:12.465Z,22.82
2019-01-08T09:57:12.532Z,22.89
2019-01-08T09:58:12.660Z,22.99
2019-01-08T09:59:12.426Z,22.99
2019-01-08T10:00:12.616Z,23.03
2019-01-08T10:01:12.489Z,23.06
2019-01-08T10:02:12.426Z,22.96
2019-01-08T10:03:12.411Z,23.03
2019-01-08T10:04:12.421Z,23.10
2019-01-08T10:05:12.422Z,23.10
2019-01-08T10:06:12.445Z,23.10
2019-01-08T10:07:12.364Z,23.07
2019-01-08T10:08:12.429Z,23.15
2019-01-08T10:09:12.390Z,23.16
2019-01-08T10:10:12.367Z,23.15
2019-01-08T10:11:12.302Z,23.25
2019-01-08T10:12:12.346Z,23.25
2019-01-08T10:13:12.302Z,23.26
2019-01-08T10:14:12.320Z,23.24
2019-01-08T10:15:12.272Z,23.37
2019-01-08T10:16:12.250Z,23.41
2019-01-08T10:17:12.239Z,23.38
2019-01-08T10:18:12.243Z,23.48
2019-01-08T10:19:12.223Z,23.47
2019-01-08T10:20:12.208Z,23.42
2019-01-08T10:21:12.232Z,23.38
2019-01-08T10:22:12.192Z,23.42
2019-01-08T10:23:12.263Z,23.38
2019-01-08T10:24:12.164Z,23.42
2019-01-08T10:25:12.183Z,23.35
2019-01-08T10:26:12.145Z,23.41
2019-01-08T10:27:12.132Z,23.40
2019-01-08T10:28:12.121Z,23.37
2019-01-08T10:29:12.110Z,23.44
2019-01-08T10:30:12.132Z,23.41
2019-01-08T10:31:12.097Z,23.48
2019-01-08T10:32:12.073Z,23.45
2019-01-08T10:33:12.104Z,23.44
2019-01-08T10:34:12.072Z,23.40
2019-01-08T10:35:12.049Z,23.41
2019-01-08T10:36:12.045Z,23.29
2019-01-08T10:37:12.041Z,23.32
2019-01-08T10:38:12.020Z,23.32
2019-01-08T10:39:12.021Z,23.35
2019-01-08T10:40:12.010Z,23.29
2019-01-08T10:41:11.998Z,23.10
2019-01-08T10:42:12.008Z,23.07
2019-01-08T10:43:12.014Z,23.00
2019-01-08T10:44:11.984Z,22.99
2019-01-08T10:45:11.950Z,23.06
2019-01-08T10:46:11.940Z,23.03
2019-01-08T10:47:11.927Z,23.07
2019-01-08T10:48:11.915Z,23.12
2019-01-08T10:49:11.952Z,23.09
2019-01-08T10:50:11.969Z,23.09
2019-01-08T10:51:11.948Z,22.99
2019-01-08T10:52:11.868Z,22.97
2019-01-08T10:53:11.864Z,23.00
2019-01-08T10:54:11.856Z,22.97
2019-01-08T10:55:11.861Z,22.97
2019-01-08T10:56:11.884Z,22.94
2019-01-08T10:57:11.819Z,23.03
2019-01-08T10:58:11.922Z,23.03
2019-01-08T10:59:11.795Z,23.03
2019-01-08T11:00:11.791Z,22.99
2019-01-08T11:01:11.774Z,23.07
2019-01-08T11:02:11.851Z,23.07
2019-01-08T11:03:11.787Z,23.04
2019-01-08T11:04:11.748Z,23.06
2019-01-08T11:05:11.750Z,22.99
2019-01-08T11:06:11.722Z,22.99
2019-01-08T11:07:11.723Z,22.97
2019-01-08T11:08:11.719Z,22.85
2019-01-08T11:09:11.725Z,22.85
2019-01-08T11:10:12.467Z,22.86
2019-01-08T11:11:11.685Z,22.91
2019-01-08T11:12:11.673Z,22.85
2019-01-08T11:13:11.675Z,22.84
2019-01-08T11:14:11.656Z,22.86
2019-01-08T11:15:11.638Z,22.89
2019-01-08T11:16:11.723Z,22.94
2019-01-08T11:17:11.611Z,22.97
2019-01-08T11:18:11.601Z,22.91
2019-01-08T11:19:11.593Z,22.92
2019-01-08T11:20:11.579Z,22.84
2019-01-08T11:21:11.609Z,22.79
2019-01-08T11:22:11.558Z,22.82
2019-01-08T11:23:11.556Z,22.73
2019-01-08T11:24:11.565Z,22.85
2019-01-08T11:25:11.549Z,22.82
2019-01-08T11:26:11.530Z,22.76
2019-01-08T11:27:11.515Z,22.73
2019-01-08T11:28:11.501Z,22.73
2019-01-08T11:29:11.473Z,22.81
2019-01-08T11:30:11.488Z,22.88
2019-01-08T11:31:11.472Z,22.84
2019-01-08T11:32:11.446Z,22.73
2019-01-08T11:33:11.463Z,22.75
2019-01-08T11:34:11.540Z,22.85
2019-01-08T11:35:11.438Z,22.67
2019-01-08T11:36:11.413Z,22.57
2019-01-08T11:37:11.407Z,22.48
2019-01-08T11:38:11.396Z,22.34
2019-01-08T11:39:11.404Z,22.07
2019-01-08T11:40:11.374Z,21.78
2019-01-08T11:41:11.389Z,21.68
2019-01-08T11:42:11.360Z,21.48
2019-01-08T11:43:11.343Z,21.30
2019-01-08T11:44:11.333Z,21.13
2019-01-08T11:45:11.331Z,21.25
2019-01-08T11:46:11.309Z,21.23
2019-01-08T11:47:11.325Z,21.15
2019-01-08T11:48:11.288Z,21.06
2019-01-08T11:49:11.324Z,21.03
2019-01-08T11:50:11.269Z,21.18
2019-01-08T11:51:11.296Z,21.15
2019-01-08T11:52:11.285Z,21.15
2019-01-08T11:53:11.266Z,21.11
2019-01-08T11:54:11.369Z,21.31
2019-01-08T11:55:11.221Z,21.40
2019-01-08T11:56:11.195Z,21.51
2019-01-08T11:57:11.201Z,21.64
2019-01-08T11:58:11.193Z,21.83
2019-01-08T11:59:11.161Z,21.94
2019-01-08T12:00:11.162Z,22.05
2019-01-08T12:01:11.158Z,22.26
2019-01-08T12:02:11.175Z,22.00
2019-01-08T12:03:11.206Z,21.16
2019-01-08T12:04:11.150Z,21.06
2019-01-08T12:05:11.118Z,20.82
2019-01-08T12:06:11.124Z,20.68
2019-01-08T12:07:11.178Z,20.78
2019-01-08T12:08:11.071Z,20.76
2019-01-08T12:09:11.062Z,20.71
2019-01-08T12:10:11.070Z,20.86
2019-01-08T12:11:11.181Z,20.97
2019-01-08T12:12:11.169Z,21.13
2019-01-08T12:13:11.054Z,20.97
2019-01-08T12:14:11.017Z,20.97
2019-01-08T12:15:11.002Z,21.13
2019-01-08T12:16:10.992Z,21.15
2019-01-08T12:17:10.981Z,21.00
2019-01-08T12:18:10.963Z,21.00
2019-01-08T12:19:10.960Z,21.00
2019-01-08T12:20:11.743Z,20.97
2019-01-08T12:21:10.970Z,21.12
2019-01-08T12:22:10.950Z,21.16
2019-01-08T12:23:10.936Z,21.25
2019-01-08T12:24:10.930Z,21.55
2019-01-08T12:25:10.896Z,21.86
2019-01-08T12:26:11.247Z,22.11
2019-01-08T12:27:10.877Z,22.33
2019-01-08T12:28:10.873Z,22.27
2019-01-08T12:29:10.894Z,22.29
2019-01-08T12:30:10.839Z,22.48
2019-01-08T12:31:10.829Z,22.66
2019-01-08T12:32:10.819Z,22.78
2019-01-08T12:33:10.826Z,22.82
2019-01-08T12:34:11.100Z,22.94
2019-01-08T12:35:10.823Z,23.10
2019-01-08T12:36:10.773Z,23.14
2019-01-08T12:37:11.788Z,23.25
2019-01-08T12:38:10.994Z,23.22
2019-01-08T12:39:10.758Z,23.09
2019-01-08T12:40:10.740Z,23.18
2019-01-08T12:41:10.722Z,23.25
2019-01-08T12:42:10.708Z,23.32
2019-01-08T12:43:10.706Z,23.42
2019-01-08T12:44:10.700Z,23.50
2019-01-08T12:45:10.696Z,23.38
2019-01-08T12:46:10.798Z,23.40
2019-01-08T12:47:10.676Z,23.47
2019-01-08T12:48:10.662Z,23.44
2019-01-08T12:49:10.643Z,23.40
2019-01-08T12:50:10.636Z,23.50
2019-01-08T12:51:10.637Z,23.50
2019-01-08T12:52:10.614Z,23.59